Time;durP1;ratioP1;P1;durP2;ratioP2;P2;SDS_P1;SDS_P2;PMS_P1;PMS_P2;Temp;Humidity;BMP_temperature;BMP_pressure;BME280_temperature;BME280_humidity;BME280_pressure;Samples;Min_cycle;Max_cycle;Signal;HPM_P1;HPM_P2
2023/09/01 07:01:27;;;;;;;1.30;1.30;;;17.70;99.90;21.10;100729.00;;;;6013235;22;3561995;-69
2023/09/01 07:04:39;;;;;;;1.30;1.30;;;17.80;99.90;20.90;100766.00;;;;6187227;23;20147;-69
2023/09/01 07:07:12;;;;;;;1.50;1.50;;;17.60;99.90;21.40;100762.00;;;;6162315;23;20137;-69
2023/09/01 07:09:38;;;;;;;1.40;1.40;;;17.70;99.90;21.50;100766.00;;;;6160744;23;20148;-69
2023/09/01 07:12:12;;;;;;;1.40;1.40;;;17.70;99.90;21.20;100762.00;;;;6161228;23;20599;-69
2023/09/01 07:14:37;;;;;;;1.80;1.80;;;17.70;99.90;21.10;100759.00;;;;6160832;23;20207;-69
2023/09/01 07:17:06;;;;;;;1.50;1.50;;;17.60;99.90;21.50;100764.00;;;;6160851;23;20155;-69
2023/09/01 07:19:35;;;;;;;1.77;1.77;;;17.60;99.90;21.50;100752.00;;;;6160222;23;20152;-69
2023/09/01 07:22:05;;;;;;;1.40;1.40;;;17.80;99.90;21.30;100761.00;;;;6135737;23;20210;-69
2023/09/01 07:24:34;;;;;;;1.80;1.80;;;17.80;99.90;21.60;100769.00;;;;6160167;23;20174;-69
2023/09/01 07:27:03;;;;;;;1.50;1.50;;;17.90;99.90;21.70;100735.00;;;;6160616;23;20489;-68
2023/09/01 07:29:52;;;;;;;2.30;2.20;;;18.00;99.90;21.00;100765.00;;;;6160247;23;20628;-69
2023/09/01 07:32:18;;;;;;;1.80;1.80;;;17.80;99.90;21.50;100767.00;;;;6160381;23;21037;-69
2023/09/01 07:34:52;;;;;;;1.90;1.90;;;17.90;99.90;21.30;100766.00;;;;6186850;23;20150;-69
2023/09/01 07:37:19;;;;;;;2.00;2.00;;;17.70;99.90;21.00;100758.00;;;;6186443;23;20337;-69
2023/09/01 07:39:54;;;;;;;2.23;2.23;;;17.80;99.90;21.00;100760.00;;;;6186987;23;20150;-69
2023/09/01 07:42:22;;;;;;;2.00;2.00;;;17.70;99.90;20.60;100725.00;;;;6186794;23;20183;-69
2023/09/01 07:44:50;;;;;;;1.80;1.80;;;17.60;99.90;20.70;100762.00;;;;6186333;23;20638;-69
2023/09/01 07:47:39;;;;;;;2.03;2.03;;;17.50;99.90;21.20;100766.00;;;;6160164;23;20183;-69
2023/09/01 07:50:13;;;;;;;1.93;1.93;;;17.60;99.90;21.40;100751.00;;;;6161328;23;20137;-69
2023/09/01 07:52:44;;;;;;;2.03;2.03;;;17.70;99.90;21.90;100774.00;;;;6160621;23;20148;-69
2023/09/01 07:55:11;;;;;;;2.30;2.30;;;17.90;99.90;21.60;100782.00;;;;6160335;23;20142;-69
2023/09/01 07:57:39;;;;;;;2.60;2.50;;;18.00;99.90;22.00;100763.00;;;;6160550;23;20148;-69
2023/09/01 08:00:17;;;;;;;2.20;2.20;;;18.10;99.90;22.20;100778.00;;;;6159969;23;20180;-69
2023/09/01 08:03:02;;;;;;;2.30;2.30;;;18.40;99.90;22.00;100769.00;;;;6160835;23;20180;-69
2023/09/01 08:05:30;;;;;;;2.40;2.40;;;18.30;99.90;22.20;100782.00;;;;6160226;23;20570;-69
2023/09/01 08:08:21;;;;;;;2.20;2.20;;;18.30;99.90;22.20;100785.00;;;;6186511;23;20267;-69
2023/09/01 08:10:51;;;;;;;2.77;2.67;;;18.40;99.90;21.80;100736.00;;;;6136343;23;20207;-69
2023/09/01 08:13:17;;;;;;;2.20;2.20;;;18.40;99.90;21.70;100757.00;;;;6186861;23;20156;-69
2023/09/01 08:15:54;;;;;;;2.10;2.10;;;18.20;99.90;22.00;100790.00;;;;6186785;23;20172;-70
2023/09/01 08:18:28;;;;;;;2.10;2.10;;;18.20;99.90;21.80;100798.00;;;;6160597;23;20145;-69
2023/09/01 08:20:56;;;;;;;2.20;2.20;;;18.20;99.90;22.30;100806.00;;;;6160160;23;20153;-69
2023/09/01 08:23:31;;;;;;;2.27;2.27;;;18.30;99.90;22.60;100798.00;;;;6186441;23;20172;-69
2023/09/01 08:26:07;;;;;;;2.13;2.13;;;18.60;99.90;22.80;100797.00;;;;6160062;23;20148;-69
2023/09/01 08:28:36;;;;;;;2.47;2.47;;;18.80;99.90;22.40;100790.00;;;;6186915;23;20153;-69
2023/09/01 08:31:22;;;;;;;2.27;2.27;;;18.70;99.90;22.50;100801.00;;;;6160037;23;20166;-69
2023/09/01 08:33:48;;;;;;;2.07;2.07;;;18.60;99.90;22.60;100803.00;;;;6136031;23;20625;-70
2023/09/01 08:36:14;;;;;;;2.00;2.00;;;18.70;99.90;23.10;100804.00;;;;6159753;23;20137;-69
2023/09/01 08:38:52;;;;;;;2.40;2.40;;;19.00;99.90;22.60;100804.00;;;;6186547;23;20236;-69
2023/09/01 08:41:25;;;;;;;2.43;2.43;;;18.90;99.90;22.70;100805.00;;;;6159770;23;20198;-69
2023/09/01 08:44:07;;;;;;;2.20;2.20;;;18.80;99.90;22.40;100809.00;;;;6185958;23;20173;-69
2023/09/01 08:46:37;;;;;;;2.40;2.40;;;18.80;99.90;22.50;100785.00;;;;6161133;23;20225;-69
2023/09/01 08:49:26;;;;;;;2.20;2.20;;;18.70;99.90;22.40;100812.00;;;;6160770;23;20154;-69
2023/09/01 08:52:17;;;;;;;2.30;2.30;;;18.70;99.90;22.50;100831.00;;;;6186588;23;20147;-69
2023/09/01 08:54:51;;;;;;;2.47;2.47;;;18.70;99.90;22.50;100817.00;;;;6136008;23;20482;-69
2023/09/01 08:57:34;;;;;;;2.30;2.30;;;18.70;99.90;22.50;100825.00;;;;6159994;23;20152;-69
2023/09/01 09:00:07;;;;;;;2.10;2.10;;;18.90;99.90;21.50;100818.00;;;;6168280;23;20173;-69
2023/09/01 09:02:41;;;;;;;2.00;2.00;;;18.60;99.90;21.90;100825.00;;;;6216179;23;20181;-69
2023/09/01 09:05:17;;;;;;;2.10;2.10;;;18.60;99.90;22.50;100827.00;;;;6189458;23;20142;-69
2023/09/01 09:08:06;;;;;;;1.90;1.90;;;18.70;99.90;22.20;100817.00;;;;6189439;23;20145;-69
2023/09/01 09:10:54;;;;;;;1.80;1.80;;;18.70;99.90;22.00;100813.00;;;;6189465;23;20592;-69
2023/09/01 09:13:24;;;;;;;1.80;1.80;;;18.70;99.90;21.90;100818.00;;;;6189739;23;20162;-69
2023/09/01 09:16:20;;;;;;;1.63;1.63;;;18.60;99.90;22.10;100815.00;;;;6189391;23;20169;-70
2023/09/01 09:18:48;;;;;;;1.67;1.67;;;18.60;99.90;22.20;100818.00;;;;6188099;23;20166;-69
2023/09/01 09:21:32;;;;;;;1.80;1.80;;;18.70;99.90;22.50;100796.00;;;;6189691;23;20189;-70
2023/09/01 09:24:03;;;;;;;1.88;1.88;;;18.80;99.90;22.40;100826.00;;;;6189995;23;20199;-69
2023/09/01 09:26:34;;;;;;;1.90;1.90;;;18.90;99.90;22.70;100798.00;;;;6189760;23;20150;-70
2023/09/01 09:29:11;;;;;;;1.70;1.70;;;18.90;99.90;22.20;100828.00;;;;6189350;23;20155;-70
2023/09/01 09:31:40;;;;;;;1.80;1.80;;;18.90;99.90;22.70;100837.00;;;;6190992;23;20157;-70
2023/09/01 09:34:29;;;;;;;2.55;2.42;;;19.00;99.90;22.40;100839.00;;;;6215774;23;20168;-70
2023/09/01 09:36:57;;;;;;;2.00;2.00;;;19.00;99.90;22.40;100850.00;;;;6189832;23;20444;-70
2023/09/01 09:39:49;;;;;;;2.97;2.87;;;18.90;99.90;22.50;100854.00;;;;6189598;23;20472;-70
2023/09/01 09:42:41;;;;;;;1.90;1.90;;;19.00;99.90;22.00;100856.00;;;;6189390;23;20169;-70
2023/09/01 09:45:32;;;;;;;2.00;2.00;;;18.90;99.90;23.00;100857.00;;;;6165088;23;20162;-70
2023/09/01 09:48:24;;;;;;;2.00;2.00;;;19.10;99.90;22.40;100843.00;;;;6180735;23;20162;-70
2023/09/01 09:51:16;;;;;;;1.90;1.90;;;19.30;99.90;22.50;100858.00;;;;6212028;23;20158;-70
2023/09/01 09:54:21;;;;;;;1.98;1.98;;;19.20;99.90;22.00;100870.00;;;;6188876;23;20147;-70
2023/09/01 09:57:14;;;;;;;1.90;1.90;;;19.20;99.90;22.50;100884.00;;;;6146120;23;20181;-70
2023/09/01 09:59:57;;;;;;;2.00;2.00;;;19.30;99.90;23.20;100880.00;;;;6184485;23;20622;-70
2023/09/01 10:02:53;;;;;;;2.80;2.70;;;19.70;99.90;24.50;100849.00;;;;6184966;23;20261;-70
2023/09/01 10:05:41;;;;;;;2.60;2.50;;;20.30;99.90;22.50;100868.00;;;;6159898;23;20199;-70
2023/09/01 10:08:09;;;;;;;1.70;1.70;;;20.20;99.90;22.40;100885.00;;;;6135427;23;20495;-70
2023/09/01 10:10:55;;;;;;;1.70;1.70;;;19.60;99.90;23.10;100890.00;;;;6185407;23;20167;-70
2023/09/01 10:13:24;;;;;;;1.90;1.90;;;19.50;99.90;24.30;100891.00;;;;6159086;23;20158;-70
2023/09/01 10:16:14;;;;;;;2.10;2.00;;;20.10;99.90;23.10;100877.00;;;;6135024;23;20155;-70
2023/09/01 10:19:04;;;;;;;1.95;1.92;;;20.10;99.90;22.30;100860.00;;;;6133977;23;20155;-70
2023/09/01 10:33:38;;;;;;;0.85;0.85;;;19.20;99.90;23.00;100948.00;;;;5070311;28;20967;-69
2023/09/01 10:36:18;;;;;;;1.55;1.55;;;19.60;99.90;23.70;100943.00;;;;5034480;28;20194;-69
2023/09/01 10:38:55;;;;;;;1.35;1.35;;;20.00;99.90;22.80;100925.00;;;;5047938;28;20185;-69
2023/09/01 10:41:48;;;;;;;1.50;1.50;;;19.70;99.90;23.30;100923.00;;;;5050103;28;20182;-69
2023/09/01 10:45:06;;;;;;;1.50;1.50;;;19.90;99.90;22.70;100920.00;;;;5048774;28;20197;-69
2023/09/01 10:47:53;;;;;;;1.30;1.30;;;20.00;99.90;22.20;100926.00;;;;5040186;28;20206;-69
2023/09/01 10:50:21;;;;;;;1.20;1.20;;;19.60;99.90;23.10;100906.00;;;;5049442;28;20414;-69
2023/09/01 10:53:32;;;;;;;1.33;1.33;;;19.70;99.90;23.60;100925.00;;;;5055688;28;20203;-69
2023/09/01 10:56:33;;;;;;;1.20;1.20;;;20.10;99.90;22.00;100928.00;;;;5081038;28;20219;-69
2023/09/01 10:58:59;;;;;;;1.35;1.30;;;19.90;99.90;22.70;100928.00;;;;5048597;28;20183;-69
2023/09/01 11:01:39;;;;;;;1.10;1.10;;;19.70;99.90;22.40;100930.00;;;;5044616;28;20243;-69
2023/09/01 11:04:19;;;;;;;1.20;1.20;;;19.90;99.90;22.50;100932.00;;;;5034365;28;20282;-69
2023/09/01 11:07:00;;;;;;;1.38;1.38;;;19.80;99.90;23.50;100930.00;;;;5046894;28;20190;-69
2023/09/01 11:09:34;;;;;;;1.30;1.30;;;20.20;99.90;22.80;100930.00;;;;5049347;28;20644;-69
2023/09/01 11:12:07;;;;;;;1.45;1.45;;;20.20;99.90;23.20;100936.00;;;;5040938;28;20229;-69
2023/09/01 11:14:38;;;;;;;1.58;1.58;;;20.30;99.90;23.50;100933.00;;;;5048287;28;20186;-69
2023/09/01 11:17:15;;;;;;;1.20;1.20;;;20.50;99.90;23.10;100926.00;;;;5048576;28;20266;-69
2023/09/01 11:20:09;;;;;;;1.40;1.40;;;20.50;99.90;23.90;100923.00;;;;5048720;28;20186;-70
2023/09/01 11:22:45;;;;;;;1.40;1.40;;;20.90;99.90;25.60;100920.00;;;;5049725;28;20190;-71
2023/09/01 11:25:16;;;;;;;1.70;1.70;;;21.80;99.90;25.70;100902.00;;;;5048121;28;20206;-70
2023/09/01 11:28:07;;;;;;;1.23;1.23;;;22.70;99.90;25.70;100867.00;;;;5031479;28;20265;-70
2023/09/01 11:30:32;;;;;;;1.50;1.50;;;22.70;99.90;28.30;100917.00;;;;5048303;28;20265;-71
2023/09/01 11:33:15;;;;;;;0.70;0.70;;;23.90;99.90;24.80;100911.00;;;;5049383;28;20308;-70
2023/09/01 11:36:05;;;;;;;0.80;0.80;;;23.20;99.90;25.80;100919.00;;;;5048092;28;20182;-70
2023/09/01 11:38:30;;;;;;;0.80;0.80;;;23.00;99.90;24.80;100910.00;;;;5037385;28;20233;-70
2023/09/01 11:40:58;;;;;;;0.60;0.60;;;22.40;99.90;24.70;100911.00;;;;5048276;28;20210;-70
2023/09/01 11:43:24;;;;;;;0.50;0.50;;;22.20;99.90;23.80;100910.00;;;;5043141;28;20191;-70
2023/09/01 11:45:51;;;;;;;0.65;0.65;;;21.70;99.90;25.50;100911.00;;;;5034338;28;20532;-70
2023/09/01 11:48:31;;;;;;;0.70;0.70;;;22.00;99.90;26.10;100915.00;;;;5034571;28;20249;-69
2023/09/01 11:51:16;;;;;;;0.60;0.60;;;22.50;99.90;25.40;100927.00;;;;5034366;28;20282;-69
2023/09/01 11:53:52;;;;;;;1.58;0.90;;;22.60;99.90;26.30;100923.00;;;;5027759;28;20178;-70
2023/09/01 11:56:22;;;;;;;0.52;0.52;;;23.10;99.90;24.10;100927.00;;;;5035307;28;20386;-69
2023/09/01 11:58:53;;;;;;;0.85;0.85;;;22.40;99.90;25.20;100941.00;;;;5034014;28;20179;-69
2023/09/01 12:01:44;;;;;;;0.40;0.40;;;22.50;99.90;25.40;100933.00;;;;5035040;28;20193;-70
2023/09/01 12:04:11;;;;;;;1.00;0.80;;;22.30;99.90;26.00;100949.00;;;;5035061;28;20207;-70
2023/09/01 12:06:44;;;;;;;0.50;0.50;;;22.80;99.90;24.60;100940.00;;;;5034213;28;20183;-69
2023/09/01 12:09:13;;;;;;;0.50;0.50;;;22.40;99.90;26.00;100941.00;;;;5034110;28;20244;-70
2023/09/01 12:11:52;;;;;;;0.70;0.70;;;22.40;99.90;26.50;100971.00;;;;5017586;28;20664;-70
2023/09/01 12:14:27;;;;;;;0.50;0.50;;;23.00;99.90;25.00;100970.00;;;;5035004;28;20186;-70
2023/09/01 12:16:53;;;;;;;0.45;0.45;;;22.60;99.90;24.20;100966.00;;;;5033698;28;20651;-69
2023/09/01 12:19:50;;;;;;;0.40;0.40;;;22.10;99.90;23.90;100944.00;;;;5017807;28;20190;-68
2023/09/01 12:22:18;;;;;;;0.40;0.40;;;21.70;99.90;25.10;100948.00;;;;5032881;28;20690;-70
2023/09/01 12:24:57;;;;;;;0.80;0.80;;;22.10;99.90;26.30;100969.00;;;;5033987;28;20212;-70
2023/09/01 12:27:27;;;;;;;0.60;0.60;;;22.80;99.90;27.50;100990.00;;;;5022958;28;20236;-70
2023/09/01 12:29:56;;;;;;;1.05;0.90;;;23.40;99.90;25.80;100981.00;;;;5026051;28;20175;-70
2023/09/01 12:32:22;;;;;;;0.68;0.60;;;23.10;99.90;25.10;100977.00;;;;5033078;28;20723;-69
2023/09/01 12:34:50;;;;;;;0.40;0.40;;;22.70;99.90;24.40;100962.00;;;;5034757;28;20214;-70
2023/09/01 12:37:17;;;;;;;0.40;0.40;;;22.20;99.90;24.50;100939.00;;;;5033446;28;20596;-69
2023/09/01 12:39:43;;;;;;;0.55;0.55;;;22.10;99.90;24.70;100975.00;;;;5034977;28;20613;-70
2023/09/01 12:42:09;;;;;;;0.40;0.40;;;22.20;99.90;24.00;100977.00;;;;5033059;28;20193;-70
2023/09/01 12:44:35;;;;;;;0.32;0.32;;;22.00;99.90;24.10;100943.00;;;;5033565;28;20191;-70
2023/09/01 12:47:01;;;;;;;0.30;0.30;;;21.80;99.90;24.30;100977.00;;;;5024454;28;20195;-70
2023/09/01 12:49:28;;;;;;;0.30;0.30;;;22.00;99.90;24.40;100993.00;;;;5030591;28;20251;-70
2023/09/01 12:51:55;;;;;;;0.20;0.20;;;22.10;99.90;25.00;100997.00;;;;5033172;28;20571;-70
2023/09/01 12:54:23;;;;;;;0.30;0.30;;;22.40;99.90;26.00;101002.00;;;;5013238;28;20187;-69
2023/09/01 12:56:53;;;;;;;0.20;0.20;;;22.80;99.90;26.30;101001.00;;;;5032376;28;20197;-70
2023/09/01 12:59:18;;;;;;;0.22;0.22;;;22.90;99.90;26.00;100993.00;;;;5029064;28;20208;-70
2023/09/01 13:01:44;;;;;;;0.30;0.30;;;23.00;99.90;25.40;100973.00;;;;5032740;28;20557;-69
2023/09/01 13:04:13;;;;;;;0.40;0.40;;;22.90;99.90;25.00;100961.00;;;;5033957;28;20453;-69
2023/09/01 13:06:40;;;;;;;1.25;0.82;;;22.40;99.90;24.90;101003.00;;;;5034163;28;20244;-70
2023/09/01 13:09:07;;;;;;;0.40;0.40;;;22.30;99.90;25.30;100967.00;;;;5029933;28;20215;-70
2023/09/01 13:11:53;;;;;;;0.20;0.20;;;22.30;99.90;25.30;100978.00;;;;5044417;28;20199;-69
2023/09/01 13:14:22;;;;;;;0.45;0.30;;;22.40;99.90;26.00;101006.00;;;;5034580;28;20277;-69
2023/09/01 13:16:48;;;;;;;0.20;0.20;;;22.80;99.90;26.00;101003.00;;;;5032813;28;20187;-70
2023/09/01 13:19:16;;;;;;;1.20;0.95;;;23.10;99.90;27.60;101029.00;;;;5032766;28;20233;-69
2023/09/01 13:21:42;;;;;;;0.30;0.30;;;23.80;99.90;26.30;100979.00;;;;5029049;28;20210;-69
2023/09/01 13:24:08;;;;;;;0.40;0.40;;;23.50;99.90;25.40;101017.00;;;;5032777;28;20645;-69
2023/09/01 13:26:34;;;;;;;0.40;0.40;;;23.20;99.90;24.90;101023.00;;;;5033656;28;20182;-70
2023/09/01 13:29:00;;;;;;;0.95;0.35;;;22.70;99.90;24.50;101027.00;;;;5021299;28;20193;-69
2023/09/01 13:31:26;;;;;;;0.20;0.20;;;22.40;99.90;26.80;101050.00;;;;5010018;28;20330;-69
2023/09/01 13:33:59;;;;;;;0.20;0.20;;;22.80;99.90;26.10;101042.00;;;;5021289;28;20676;-70
2023/09/01 13:36:26;;;;;;;0.20;0.20;;;22.90;99.90;25.70;101041.00;;;;5030665;28;20179;-70
2023/09/01 13:39:00;;;;;;;0.30;0.30;;;22.90;99.90;24.50;101029.00;;;;5032254;28;20210;-70
2023/09/01 13:41:27;;;;;;;0.75;0.50;;;22.50;99.90;24.80;101033.00;;;;5032182;28;20191;-70
2023/09/01 13:43:56;;;;;;;0.20;0.20;;;22.40;99.90;26.70;101054.00;;;;5032454;28;20183;-70
2023/09/01 13:46:28;;;;;;;0.65;0.40;;;22.90;99.90;27.20;101054.00;;;;5032686;28;20191;-70
2023/09/01 13:48:59;;;;;;;0.10;0.10;;;23.10;99.90;27.40;101054.00;;;;5031683;28;20179;-70
2023/09/01 13:51:32;;;;;;;0.20;0.20;;;23.50;99.90;29.10;101073.00;;;;5032119;28;20203;-69
2023/09/01 13:53:59;;;;;;;0.10;0.10;;;24.40;99.90;28.00;101079.00;;;;5032332;28;20190;-69
2023/09/01 13:56:27;;;;;;;0.15;0.15;;;24.40;99.90;29.00;101055.00;;;;5033408;28;20245;-69
2023/09/01 13:59:01;;;;;;;0.40;0.40;;;24.70;99.90;27.30;101085.00;;;;5032282;28;20232;-70
2023/09/01 14:01:27;;;;;;;0.10;0.10;;;24.60;99.90;26.60;101014.00;;;;5032328;28;20206;-69
2023/09/01 14:03:53;;;;;;;0.10;0.10;;;23.70;99.90;27.90;101064.00;;;;5033150;28;20225;-70
2023/09/01 14:06:19;;;;;;;0.73;0.73;;;24.00;99.90;26.20;101056.00;;;;5031577;28;20251;-71
2023/09/01 14:09:04;;;;;;;0.30;0.30;;;23.70;99.90;26.00;101040.00;;;;5032919;28;20549;-70
2023/09/01 14:11:32;;;;;;;0.47;0.20;;;23.20;99.90;25.00;101035.00;;;;5048005;28;20608;-70
2023/09/01 14:14:00;;;;;;;0.38;0.38;;;22.70;99.90;26.00;101025.00;;;;5031762;28;20185;-70
2023/09/01 14:16:49;;;;;;;0.20;0.20;;;22.80;99.90;26.30;101070.00;;;;5032053;28;20178;-70
2023/09/01 14:19:16;;;;;;;0.20;0.20;;;22.90;99.90;26.10;101051.00;;;;5031867;28;20190;-70
2023/09/01 14:21:49;;;;;;;0.10;0.10;;;22.90;99.90;26.80;101031.00;;;;5033120;28;20191;-69
2023/09/01 14:24:39;;;;;;;0.10;0.10;;;23.20;99.90;27.40;101071.00;;;;5031486;28;20182;-70
2023/09/01 14:27:08;;;;;;;0.10;0.10;;;23.60;99.90;28.10;101076.00;;;;5031846;28;20190;-70
2023/09/01 14:29:39;;;;;;;0.10;0.10;;;24.00;99.90;28.00;101084.00;;;;5015363;28;20632;-70
2023/09/01 14:32:05;;;;;;;0.10;0.10;;;24.30;99.90;28.60;101074.00;;;;5032653;28;20229;-70
2023/09/01 14:34:38;;;;;;;0.40;0.40;;;24.50;99.90;27.10;101056.00;;;;5032549;28;20695;-70
2023/09/01 14:37:09;;;;;;;0.68;0.68;;;24.20;99.90;27.00;101052.00;;;;5015476;28;20187;-70
2023/09/01 14:39:35;;;;;;;0.10;0.10;;;23.80;99.90;27.80;101045.00;;;;5031481;28;20182;-70
2023/09/01 14:42:04;;;;;;;0.10;0.10;;;23.90;99.90;28.70;101078.00;;;;5014914;28;20715;-70
2023/09/01 14:44:30;;;;;;;0.10;0.10;;;24.30;99.90;29.60;101082.00;;;;5031655;28;20185;-70
2023/09/01 14:46:56;;;;;;;0.10;0.10;;;24.90;99.90;30.10;101124.00;;;;5031458;28;20269;-71
2023/09/01 14:49:23;;;;;;;0.20;0.20;;;25.40;99.90;28.00;101096.00;;;;5031888;28;20637;-70
2023/09/01 14:51:50;;;;;;;0.10;0.10;;;24.80;99.90;27.30;101075.00;;;;5031339;28;20210;-70
2023/09/01 14:54:16;;;;;;;0.57;0.55;;;24.40;99.90;27.40;101071.00;;;;5031500;28;20194;-70
2023/09/01 14:56:42;;;;;;;0.10;0.10;;;24.20;99.90;28.60;101076.00;;;;5028339;28;20183;-70
2023/09/01 14:59:09;;;;;;;0.10;0.10;;;24.30;99.90;28.40;101093.00;;;;5048239;28;20210;-70
2023/09/01 15:01:38;;;;;;;0.10;0.10;;;24.50;99.90;28.50;101096.00;;;;5032933;28;20205;-69
2023/09/01 15:04:14;;;;;;;0.10;0.10;;;24.50;99.90;29.50;101113.00;;;;5032207;28;20171;-70
2023/09/01 15:07:05;;;;;;;0.40;0.40;;;24.80;99.90;26.70;101068.00;;;;5014724;28;20257;-69
2023/09/01 15:09:31;;;;;;;0.10;0.10;;;24.10;99.90;28.00;101076.00;;;;5021239;28;20195;-69
2023/09/01 15:12:06;;;;;;;0.10;0.10;;;24.10;99.90;26.20;101061.00;;;;5032583;28;20592;-70
2023/09/01 15:14:42;;;;;;;0.10;0.10;;;23.70;99.90;26.90;101062.00;;;;5030982;28;20185;-69
2023/09/01 15:17:10;;;;;;;0.10;0.10;;;23.60;99.90;28.00;101074.00;;;;5031204;28;20637;-70
2023/09/01 15:19:36;;;;;;;0.10;0.10;;;23.90;99.90;27.40;101029.00;;;;5034622;28;20183;-69
2023/09/01 15:22:03;;;;;;;0.15;0.15;;;23.90;99.90;28.00;101082.00;;;;5035934;28;20190;-70
2023/09/01 15:24:29;;;;;;;0.10;0.10;;;24.20;99.90;28.50;101101.00;;;;5035283;28;20352;-69
2023/09/01 15:27:03;;;;;;;0.10;0.10;;;24.30;99.90;27.90;101051.00;;;;5022138;28;20191;-70
2023/09/01 15:29:32;;;;;;;0.10;0.10;;;24.10;99.90;28.20;101095.00;;;;5034866;28;20183;-70
2023/09/01 15:31:59;;;;;;;0.10;0.10;;;24.30;99.90;28.70;101112.00;;;;5035845;28;20210;-70
2023/09/01 15:34:25;;;;;;;0.10;0.10;;;24.40;99.90;27.40;101071.00;;;;5031508;28;20653;-70
2023/09/01 15:36:59;;;;;;;0.68;0.68;;;24.10;99.90;26.00;101057.00;;;;5051163;28;20261;-70
2023/09/01 15:39:25;;;;;;;0.20;0.20;;;23.60;99.90;27.40;101082.00;;;;5015137;28;20211;-70
2023/09/01 15:41:53;;;;;;;1.35;0.75;;;23.60;99.90;26.00;101067.00;;;;5035589;28;20637;-69
2023/09/01 15:44:42;;;;;;;0.10;0.10;;;23.50;99.90;26.40;101069.00;;;;5034537;28;20186;-70
2023/09/01 15:47:08;;;;;;;0.10;0.10;;;23.20;99.90;27.60;101077.00;;;;5034207;28;20175;-70
2023/09/01 15:49:34;;;;;;;0.10;0.10;;;23.50;99.90;27.10;101085.00;;;;5034044;28;20189;-69
2023/09/01 15:52:06;;;;;;;0.10;0.10;;;23.60;99.90;27.70;101077.00;;;;5014410;28;20253;-69
2023/09/01 15:54:34;;;;;;;0.20;0.20;;;23.70;99.90;26.80;101066.00;;;;5030869;28;20673;-69
2023/09/01 15:57:02;;;;;;;0.10;0.10;;;23.70;99.90;28.50;101090.00;;;;5033973;28;20190;-70
2023/09/01 15:59:28;;;;;;;0.10;0.10;;;24.00;99.90;28.60;101095.00;;;;5035381;28;20191;-70
2023/09/01 16:01:54;;;;;;;0.17;0.17;;;24.30;99.90;29.30;101103.00;;;;5017741;28;20203;-70
2023/09/01 16:04:22;;;;;;;15.35;13.88;;;24.60;99.90;29.30;101112.00;;;;5033734;28;20590;-69
2023/09/01 16:07:12;;;;;;;0.20;0.20;;;24.90;99.90;29.40;101133.00;;;;5034054;28;20183;-70
2023/09/01 16:09:39;;;;;;;0.10;0.10;;;24.90;99.90;29.90;101115.00;;;;5017518;28;20191;-70
2023/09/01 16:12:06;;;;;;;0.10;0.10;;;25.10;99.90;29.50;101147.00;;;;5017206;28;20691;-70
2023/09/01 16:14:44;;;;;;;2.67;0.73;;;25.00;99.90;28.10;101128.00;;;;5034271;28;20208;-69
2023/09/01 16:17:17;;;;;;;0.20;0.20;;;24.70;99.90;26.20;101064.00;;;;5034168;28;20182;-70
2023/09/01 16:19:43;;;;;;;0.63;0.63;;;23.80;99.90;27.50;101080.00;;;;5033465;28;20175;-69
2023/09/01 16:22:20;;;;;;;0.10;0.10;;;23.80;99.90;27.50;101076.00;;;;5033699;28;20542;-69
2023/09/01 16:24:46;;;;;;;0.20;0.20;;;23.70;99.90;28.30;101086.00;;;;5033683;28;20183;-70
2023/09/01 16:27:33;;;;;;;0.10;0.10;;;23.90;99.90;28.80;101101.00;;;;5033725;28;20711;-70
2023/09/01 16:30:06;;;;;;;0.10;0.10;;;24.40;99.90;28.50;101060.00;;;;5028232;28;20652;-70
2023/09/01 16:32:41;;;;;;;0.35;0.35;;;24.40;99.90;28.50;101083.00;;;;5016934;28;21460;-70
2023/09/01 16:35:15;;;;;;;0.10;0.10;;;24.40;99.90;28.30;101065.00;;;;5033795;28;20193;-70
2023/09/01 16:37:52;;;;;;;0.10;0.10;;;24.30;99.90;29.10;101112.00;;;;5034607;28;20189;-70
2023/09/01 16:40:22;;;;;;;0.20;0.20;;;24.50;99.90;29.40;101112.00;;;;5022046;28;20214;-71
2023/09/01 16:42:54;;;;;;;0.17;0.17;;;24.80;99.90;30.10;101137.00;;;;5061338;28;20187;-70
2023/09/01 16:45:20;;;;;;;0.10;0.10;;;25.20;99.90;28.30;101132.00;;;;5033556;28;20266;-70
2023/09/01 16:47:48;;;;;;;0.10;0.10;;;24.90;99.90;27.70;101093.00;;;;5034494;28;20270;-70
2023/09/01 16:50:23;;;;;;;0.10;0.10;;;24.30;99.90;28.00;101083.00;;;;5033092;28;20536;-70
2023/09/01 16:52:49;;;;;;;0.13;0.13;;;24.10;99.90;27.60;101077.00;;;;5034327;28;20217;-70
2023/09/01 16:55:18;;;;;;;0.20;0.20;;;24.00;99.90;28.10;101085.00;;;;5034807;28;20183;-70
2023/09/01 16:57:44;;;;;;;0.10;0.10;;;24.00;99.90;28.20;101080.00;;;;5034308;28;20189;-70
2023/09/01 17:00:11;;;;;;;0.20;0.20;;;24.10;99.90;27.70;101053.00;;;;5033486;28;20187;-70
2023/09/01 17:02:42;;;;;;;0.20;0.20;;;23.90;99.90;27.90;101085.00;;;;5032903;28;20680;-70
2023/09/01 17:05:10;;;;;;;0.20;0.20;;;23.90;99.90;27.50;101081.00;;;;5034300;28;20186;-70
2023/09/01 17:07:36;;;;;;;0.10;0.10;;;24.00;99.90;27.40;101078.00;;;;5033003;28;20183;-70
2023/09/01 17:10:12;;;;;;;0.10;0.10;;;23.70;99.90;27.50;101082.00;;;;5034406;28;20189;-70
2023/09/01 17:12:58;;;;;;;0.10;0.10;;;23.70;99.90;27.40;101072.00;;;;5032987;28;20222;-70
2023/09/01 17:15:24;;;;;;;0.10;0.10;;;23.70;99.90;27.60;101093.00;;;;5032983;28;20546;-70
2023/09/01 17:17:53;;;;;;;0.20;0.20;;;23.60;99.90;28.10;101107.00;;;;5033586;28;20182;-70
2023/09/01 17:20:20;;;;;;;0.20;0.20;;;23.80;99.90;28.00;101105.00;;;;5034184;28;20233;-70
2023/09/01 17:22:46;;;;;;;0.10;0.10;;;23.90;99.90;27.70;101065.00;;;;5032811;28;20180;-70
2023/09/01 17:25:14;;;;;;;0.10;0.10;;;23.80;99.90;27.40;101102.00;;;;5032736;28;20684;-70
2023/09/01 17:27:43;;;;;;;0.20;0.20;;;23.60;99.90;27.00;101101.00;;;;5032418;28;20237;-70
2023/09/01 17:30:10;;;;;;;0.20;0.20;;;23.40;99.90;26.90;101086.00;;;;5032598;28;20179;-70
2023/09/01 17:32:59;;;;;;;0.20;0.20;;;23.20;99.90;26.80;101100.00;;;;5015435;28;20246;-70
2023/09/01 17:35:34;;;;;;;0.20;0.20;;;23.10;99.90;27.10;101091.00;;;;5033782;28;20535;-70
2023/09/01 17:38:00;;;;;;;0.20;0.20;;;23.10;99.90;26.70;101090.00;;;;5021157;28;20194;-70
2023/09/01 17:40:36;;;;;;;0.20;0.20;;;22.90;99.90;26.50;101095.00;;;;5031959;28;20594;-70
2023/09/01 17:43:05;;;;;;;0.20;0.20;;;22.70;99.90;26.90;101095.00;;;;5015810;28;20208;-71
2023/09/01 17:45:50;;;;;;;0.20;0.20;;;22.70;99.90;27.00;101091.00;;;;5033729;28;20198;-70
2023/09/01 17:48:39;;;;;;;0.30;0.30;;;22.80;99.90;27.70;101104.00;;;;5033152;28;20222;-70
2023/09/01 17:51:05;;;;;;;0.30;0.30;;;23.10;99.90;27.60;101106.00;;;;5029082;28;20194;-70
2023/09/01 17:53:31;;;;;;;0.20;0.20;;;23.20;99.90;27.50;101108.00;;;;5033123;28;20210;-69
2023/09/01 17:56:04;;;;;;;0.30;0.30;;;23.30;99.90;27.80;101115.00;;;;5031970;28;20214;-70
2023/09/01 17:58:38;;;;;;;0.30;0.30;;;23.50;99.90;27.20;101111.00;;;;5012240;28;20271;-70
2023/09/01 18:01:14;;;;;;;0.20;0.20;;;23.30;99.90;27.80;101112.00;;;;5063172;28;20233;-69
2023/09/01 18:03:43;;;;;;;0.28;0.28;;;23.40;99.90;27.40;101112.00;;;;5027853;28;20637;-70
2023/09/01 18:06:12;;;;;;;0.30;0.30;;;23.40;99.90;27.60;101121.00;;;;5033314;28;20183;-70
2023/09/01 18:09:09;;;;;;;0.30;0.30;;;23.40;99.90;26.80;101070.00;;;;5032066;28;20730;-70
2023/09/01 18:11:36;;;;;;;0.30;0.30;;;23.20;99.90;27.00;101121.00;;;;5013264;28;20668;-70
2023/09/01 18:14:05;;;;;;;0.30;0.30;;;23.10;99.90;26.50;101122.00;;;;5015321;28;20274;-70
2023/09/01 18:16:35;;;;;;;0.30;0.30;;;22.80;99.90;26.00;101115.00;;;;5031611;28;20645;-69
2023/09/01 18:19:03;;;;;;;0.30;0.30;;;22.50;99.90;26.50;101117.00;;;;5031660;28;20183;-69
2023/09/01 18:21:41;;;;;;;0.30;0.30;;;22.50;99.90;26.70;101118.00;;;;5015619;28;20795;-70
2023/09/01 18:24:30;;;;;;;0.30;0.30;;;22.50;99.90;27.00;101112.00;;;;5032963;28;20217;-70
2023/09/01 18:27:20;;;;;;;0.30;0.30;;;22.80;99.90;26.70;101119.00;;;;5010649;28;20233;-70
2023/09/01 18:29:50;;;;;;;0.30;0.30;;;22.80;99.90;27.20;101134.00;;;;5031724;28;20183;-70